sensor_id;sensor_type;location;lat;lon;timestamp;P1;durP1;ratioP1;P2;durP2;ratioP2
22144;SDS011;11238;48.730;11.566;2023-05-14T00:02:19;16.38;;;14.35;;
22144;SDS011;11238;48.730;11.566;2023-05-14T00:04:45;17.38;;;14.45;;
22144;SDS011;11238;48.730;11.566;2023-05-14T00:07:11;15.10;;;13.05;;
22144;SDS011;11238;48.730;11.566;2023-05-14T00:09:38;15.93;;;12.63;;
22144;SDS011;11238;48.730;11.566;2023-05-14T00:12:03;13.73;;;11.65;;
22144;SDS011;11238;48.730;11.566;2023-05-14T00:14:29;13.93;;;11.85;;
22144;SDS011;11238;48.730;11.566;2023-05-14T00:16:55;15.75;;;13.13;;
22144;SDS011;11238;48.730;11.566;2023-05-14T00:19:21;15.98;;;12.30;;
22144;SDS011;11238;48.730;11.566;2023-05-14T00:21:48;13.80;;;12.15;;
22144;SDS011;11238;48.730;11.566;2023-05-14T00:24:13;16.50;;;12.27;;
22144;SDS011;11238;48.730;11.566;2023-05-14T00:26:39;18.13;;;12.90;;
22144;SDS011;11238;48.730;11.566;2023-05-14T00:29:05;14.65;;;13.07;;
22144;SDS011;11238;48.730;11.566;2023-05-14T00:31:31;14.93;;;12.82;;
22144;SDS011;11238;48.730;11.566;2023-05-14T00:33:57;15.65;;;12.82;;
22144;SDS011;11238;48.730;11.566;2023-05-14T00:36:23;15.30;;;12.55;;
22144;SDS011;11238;48.730;11.566;2023-05-14T00:38:49;14.95;;;12.63;;
22144;SDS011;11238;48.730;11.566;2023-05-14T00:41:15;13.43;;;11.38;;
22144;SDS011;11238;48.730;11.566;2023-05-14T00:43:41;15.15;;;11.77;;
22144;SDS011;11238;48.730;11.566;2023-05-14T00:46:07;14.73;;;11.73;;
22144;SDS011;11238;48.730;11.566;2023-05-14T00:48:33;12.68;;;10.70;;
22144;SDS011;11238;48.730;11.566;2023-05-14T00:51:00;11.65;;;10.27;;
22144;SDS011;11238;48.730;11.566;2023-05-14T00:53:25;14.75;;;10.93;;
22144;SDS011;11238;48.730;11.566;2023-05-14T00:55:52;17.38;;;11.95;;
22144;SDS011;11238;48.730;11.566;2023-05-14T00:58:18;14.43;;;11.88;;
22144;SDS011;11238;48.730;11.566;2023-05-14T01:00:44;14.20;;;12.10;;
22144;SDS011;11238;48.730;11.566;2023-05-14T01:03:10;15.35;;;12.23;;
22144;SDS011;11238;48.730;11.566;2023-05-14T01:05:51;14.82;;;11.73;;
22144;SDS011;11238;48.730;11.566;2023-05-14T01:11:43;15.25;;;12.13;;
22144;SDS011;11238;48.730;11.566;2023-05-14T01:13:47;20.85;;;13.63;;
22144;SDS011;11238;48.730;11.566;2023-05-14T01:16:17;15.82;;;12.30;;
22144;SDS011;11238;48.730;11.566;2023-05-14T01:18:45;16.77;;;11.77;;
22144;SDS011;11238;48.730;11.566;2023-05-14T01:24:02;15.15;;;11.27;;
22144;SDS011;11238;48.730;11.566;2023-05-14T01:26:28;13.27;;;9.77;;
22144;SDS011;11238;48.730;11.566;2023-05-14T01:28:59;10.70;;;9.20;;
22144;SDS011;11238;48.730;11.566;2023-05-14T01:31:46;10.95;;;9.13;;
22144;SDS011;11238;48.730;11.566;2023-05-14T01:34:14;10.32;;;8.82;;
22144;SDS011;11238;48.730;11.566;2023-05-14T01:36:42;11.88;;;8.35;;
22144;SDS011;11238;48.730;11.566;2023-05-14T01:39:08;11.23;;;8.38;;
22144;SDS011;11238;48.730;11.566;2023-05-14T01:41:36;12.27;;;9.32;;
22144;SDS011;11238;48.730;11.566;2023-05-14T01:44:04;10.02;;;8.45;;
22144;SDS011;11238;48.730;11.566;2023-05-14T01:46:33;10.52;;;9.23;;
22144;SDS011;11238;48.730;11.566;2023-05-14T01:48:59;11.48;;;9.27;;
22144;SDS011;11238;48.730;11.566;2023-05-14T01:51:25;11.35;;;8.18;;
22144;SDS011;11238;48.730;11.566;2023-05-14T01:53:51;10.52;;;8.93;;
22144;SDS011;11238;48.730;11.566;2023-05-14T01:56:18;11.60;;;8.15;;
22144;SDS011;11238;48.730;11.566;2023-05-14T01:58:46;9.30;;;8.13;;
22144;SDS011;11238;48.730;11.566;2023-05-14T02:01:12;9.55;;;7.78;;
22144;SDS011;11238;48.730;11.566;2023-05-14T02:03:38;8.68;;;7.65;;
22144;SDS011;11238;48.730;11.566;2023-05-14T02:06:04;8.57;;;7.68;;
22144;SDS011;11238;48.730;11.566;2023-05-14T02:08:30;10.75;;;7.72;;
22144;SDS011;11238;48.730;11.566;2023-05-14T02:10:56;8.88;;;7.97;;
22144;SDS011;11238;48.730;11.566;2023-05-14T02:13:23;10.80;;;7.80;;
22144;SDS011;11238;48.730;11.566;2023-05-14T02:15:49;8.90;;;7.78;;
22144;SDS011;11238;48.730;11.566;2023-05-14T02:18:16;9.30;;;7.65;;
22144;SDS011;11238;48.730;11.566;2023-05-14T02:20:42;9.88;;;7.85;;
22144;SDS011;11238;48.730;11.566;2023-05-14T02:23:08;9.02;;;7.72;;
22144;SDS011;11238;48.730;11.566;2023-05-14T02:25:33;9.70;;;7.85;;
22144;SDS011;11238;48.730;11.566;2023-05-14T02:27:59;8.85;;;7.20;;
22144;SDS011;11238;48.730;11.566;2023-05-14T02:30:25;9.70;;;7.50;;
22144;SDS011;11238;48.730;11.566;2023-05-14T02:32:51;9.80;;;7.70;;
22144;SDS011;11238;48.730;11.566;2023-05-14T02:35:20;9.98;;;7.90;;
22144;SDS011;11238;48.730;11.566;2023-05-14T02:37:46;8.80;;;7.90;;
22144;SDS011;11238;48.730;11.566;2023-05-14T02:40:12;8.73;;;7.68;;
22144;SDS011;11238;48.730;11.566;2023-05-14T02:42:37;10.77;;;7.65;;
22144;SDS011;11238;48.730;11.566;2023-05-14T02:45:04;8.27;;;7.35;;
22144;SDS011;11238;48.730;11.566;2023-05-14T02:47:30;11.02;;;8.18;;
22144;SDS011;11238;48.730;11.566;2023-05-14T02:49:56;8.40;;;7.22;;
22144;SDS011;11238;48.730;11.566;2023-05-14T02:52:22;7.97;;;7.18;;
22144;SDS011;11238;48.730;11.566;2023-05-14T02:54:48;10.82;;;6.75;;
22144;SDS011;11238;48.730;11.566;2023-05-14T02:57:14;9.77;;;7.97;;
22144;SDS011;11238;48.730;11.566;2023-05-14T02:59:40;8.18;;;7.03;;
22144;SDS011;11238;48.730;11.566;2023-05-14T03:02:06;9.23;;;7.68;;
22144;SDS011;11238;48.730;11.566;2023-05-14T03:04:32;8.73;;;7.35;;
22144;SDS011;11238;48.730;11.566;2023-05-14T03:06:58;9.45;;;7.50;;
22144;SDS011;11238;48.730;11.566;2023-05-14T03:09:24;10.40;;;7.60;;
22144;SDS011;11238;48.730;11.566;2023-05-14T03:11:51;11.18;;;8.85;;
22144;SDS011;11238;48.730;11.566;2023-05-14T03:14:17;10.98;;;8.93;;
22144;SDS011;11238;48.730;11.566;2023-05-14T03:17:03;14.60;;;9.77;;
22144;SDS011;11238;48.730;11.566;2023-05-14T03:19:30;10.60;;;9.10;;
22144;SDS011;11238;48.730;11.566;2023-05-14T03:21:55;11.98;;;9.50;;
22144;SDS011;11238;48.730;11.566;2023-05-14T03:24:21;12.25;;;9.48;;
22144;SDS011;11238;48.730;11.566;2023-05-14T03:26:46;10.68;;;8.98;;
22144;SDS011;11238;48.730;11.566;2023-05-14T03:29:12;10.55;;;9.45;;
22144;SDS011;11238;48.730;11.566;2023-05-14T03:31:42;11.60;;;9.73;;
22144;SDS011;11238;48.730;11.566;2023-05-14T03:34:09;11.98;;;9.82;;
22144;SDS011;11238;48.730;11.566;2023-05-14T03:36:35;12.45;;;11.15;;
22144;SDS011;11238;48.730;11.566;2023-05-14T03:39:03;12.25;;;10.25;;
22144;SDS011;11238;48.730;11.566;2023-05-14T03:41:31;12.65;;;10.02;;
22144;SDS011;11238;48.730;11.566;2023-05-14T03:43:57;12.70;;;9.68;;
22144;SDS011;11238;48.730;11.566;2023-05-14T03:46:23;10.75;;;9.30;;
22144;SDS011;11238;48.730;11.566;2023-05-14T03:48:49;11.73;;;9.23;;
22144;SDS011;11238;48.730;11.566;2023-05-14T03:51:15;12.60;;;9.00;;
22144;SDS011;11238;48.730;11.566;2023-05-14T03:53:41;11.50;;;9.50;;
22144;SDS011;11238;48.730;11.566;2023-05-14T03:56:07;12.35;;;9.40;;
22144;SDS011;11238;48.730;11.566;2023-05-14T03:58:34;10.63;;;9.52;;
22144;SDS011;11238;48.730;11.566;2023-05-14T04:01:00;12.70;;;9.70;;
22144;SDS011;11238;48.730;11.566;2023-05-14T04:03:25;11.88;;;9.90;;
22144;SDS011;11238;48.730;11.566;2023-05-14T04:05:51;13.00;;;8.90;;
22144;SDS011;11238;48.730;11.566;2023-05-14T04:08:18;10.90;;;9.13;;
22144;SDS011;11238;48.730;11.566;2023-05-14T04:10:43;9.93;;;8.93;;
22144;SDS011;11238;48.730;11.566;2023-05-14T04:13:09;11.82;;;8.90;;
22144;SDS011;11238;48.730;11.566;2023-05-14T04:15:37;10.88;;;9.05;;
22144;SDS011;11238;48.730;11.566;2023-05-14T04:18:04;10.63;;;9.05;;
22144;SDS011;11238;48.730;11.566;2023-05-14T04:20:31;10.93;;;8.63;;
22144;SDS011;11238;48.730;11.566;2023-05-14T04:22:57;11.20;;;9.27;;
22144;SDS011;11238;48.730;11.566;2023-05-14T04:25:23;11.88;;;9.90;;
22144;SDS011;11238;48.730;11.566;2023-05-14T04:27:49;12.10;;;8.95;;
22144;SDS011;11238;48.730;11.566;2023-05-14T04:30:14;10.82;;;9.43;;
22144;SDS011;11238;48.730;11.566;2023-05-14T04:32:40;9.68;;;8.68;;
22144;SDS011;11238;48.730;11.566;2023-05-14T04:35:06;10.70;;;9.02;;
22144;SDS011;11238;48.730;11.566;2023-05-14T04:37:33;10.75;;;9.13;;
22144;SDS011;11238;48.730;11.566;2023-05-14T04:39:59;11.02;;;9.27;;
22144;SDS011;11238;48.730;11.566;2023-05-14T04:42:25;11.63;;;8.95;;
22144;SDS011;11238;48.730;11.566;2023-05-14T04:44:51;11.73;;;8.98;;
22144;SDS011;11238;48.730;11.566;2023-05-14T04:47:17;10.63;;;9.15;;
22144;SDS011;11238;48.730;11.566;2023-05-14T04:49:45;11.18;;;8.77;;
22144;SDS011;11238;48.730;11.566;2023-05-14T04:52:11;10.25;;;8.77;;
22144;SDS011;11238;48.730;11.566;2023-05-14T04:54:36;12.10;;;8.75;;
22144;SDS011;11238;48.730;11.566;2023-05-14T04:57:02;11.32;;;8.57;;
22144;SDS011;11238;48.730;11.566;2023-05-14T04:59:29;10.82;;;9.10;;
22144;SDS011;11238;48.730;11.566;2023-05-14T05:01:55;12.05;;;9.10;;
22144;SDS011;11238;48.730;11.566;2023-05-14T05:04:21;11.93;;;8.45;;
22144;SDS011;11238;48.730;11.566;2023-05-14T05:06:48;9.45;;;8.45;;
22144;SDS011;11238;48.730;11.566;2023-05-14T05:09:14;10.38;;;8.73;;
22144;SDS011;11238;48.730;11.566;2023-05-14T05:11:41;11.00;;;8.25;;
22144;SDS011;11238;48.730;11.566;2023-05-14T05:14:07;11.30;;;8.10;;
22144;SDS011;11238;48.730;11.566;2023-05-14T05:16:33;9.63;;;8.00;;
22144;SDS011;11238;48.730;11.566;2023-05-14T05:18:59;10.50;;;8.05;;
22144;SDS011;11238;48.730;11.566;2023-05-14T05:21:25;10.38;;;7.82;;
22144;SDS011;11238;48.730;11.566;2023-05-14T05:23:51;15.43;;;8.38;;
22144;SDS011;11238;48.730;11.566;2023-05-14T05:26:17;10.27;;;7.88;;
22144;SDS011;11238;48.730;11.566;2023-05-14T05:28:43;9.13;;;8.13;;
22144;SDS011;11238;48.730;11.566;2023-05-14T05:31:09;10.98;;;7.38;;
22144;SDS011;11238;48.730;11.566;2023-05-14T05:33:35;10.13;;;7.90;;
22144;SDS011;11238;48.730;11.566;2023-05-14T05:36:00;10.30;;;7.97;;
22144;SDS011;11238;48.730;11.566;2023-05-14T05:38:27;12.05;;;7.97;;
22144;SDS011;11238;48.730;11.566;2023-05-14T05:40:52;10.85;;;8.05;;
22144;SDS011;11238;48.730;11.566;2023-05-14T05:43:18;9.38;;;7.15;;
22144;SDS011;11238;48.730;11.566;2023-05-14T05:45:44;9.45;;;7.47;;
22144;SDS011;11238;48.730;11.566;2023-05-14T05:48:10;10.73;;;7.68;;
22144;SDS011;11238;48.730;11.566;2023-05-14T05:50:36;11.02;;;7.85;;
22144;SDS011;11238;48.730;11.566;2023-05-14T05:53:01;9.00;;;7.53;;
22144;SDS011;11238;48.730;11.566;2023-05-14T05:55:28;9.93;;;7.43;;
22144;SDS011;11238;48.730;11.566;2023-05-14T05:57:54;8.68;;;7.57;;
22144;SDS011;11238;48.730;11.566;2023-05-14T06:00:21;8.95;;;7.32;;
22144;SDS011;11238;48.730;11.566;2023-05-14T06:02:51;8.32;;;7.38;;
22144;SDS011;11238;48.730;11.566;2023-05-14T06:05:16;10.85;;;7.75;;
22144;SDS011;11238;48.730;11.566;2023-05-14T06:07:43;11.60;;;7.47;;
22144;SDS011;11238;48.730;11.566;2023-05-14T06:10:09;8.68;;;7.57;;
22144;SDS011;11238;48.730;11.566;2023-05-14T06:12:35;9.52;;;7.88;;
22144;SDS011;11238;48.730;11.566;2023-05-14T06:15:01;8.95;;;7.72;;
22144;SDS011;11238;48.730;11.566;2023-05-14T06:17:27;10.57;;;8.23;;
22144;SDS011;11238;48.730;11.566;2023-05-14T06:19:53;10.40;;;7.70;;
22144;SDS011;11238;48.730;11.566;2023-05-14T06:22:19;9.80;;;7.15;;
22144;SDS011;11238;48.730;11.566;2023-05-14T06:24:44;8.93;;;7.50;;
22144;SDS011;11238;48.730;11.566;2023-05-14T06:27:10;9.27;;;7.47;;
22144;SDS011;11238;48.730;11.566;2023-05-14T06:29:36;10.48;;;7.57;;
22144;SDS011;11238;48.730;11.566;2023-05-14T06:32:05;8.77;;;7.88;;
22144;SDS011;11238;48.730;11.566;2023-05-14T06:34:32;10.20;;;7.35;;
22144;SDS011;11238;48.730;11.566;2023-05-14T06:36:58;10.32;;;7.03;;
22144;SDS011;11238;48.730;11.566;2023-05-14T06:39:27;8.00;;;7.20;;
22144;SDS011;11238;48.730;11.566;2023-05-14T06:41:53;9.23;;;6.75;;
22144;SDS011;11238;48.730;11.566;2023-05-14T06:44:21;8.27;;;7.22;;
22144;SDS011;11238;48.730;11.566;2023-05-14T06:46:48;12.48;;;9.65;;
22144;SDS011;11238;48.730;11.566;2023-05-14T06:49:14;9.50;;;8.27;;
22144;SDS011;11238;48.730;11.566;2023-05-14T06:51:39;8.52;;;7.63;;
22144;SDS011;11238;48.730;11.566;2023-05-14T06:54:06;9.68;;;7.50;;
22144;SDS011;11238;48.730;11.566;2023-05-14T06:56:31;9.45;;;7.18;;
22144;SDS011;11238;48.730;11.566;2023-05-14T06:58:57;8.02;;;6.50;;
22144;SDS011;11238;48.730;11.566;2023-05-14T07:01:23;7.72;;;6.85;;
22144;SDS011;11238;48.730;11.566;2023-05-14T07:03:49;8.75;;;7.00;;
22144;SDS011;11238;48.730;11.566;2023-05-14T07:06:14;11.30;;;6.88;;
22144;SDS011;11238;48.730;11.566;2023-05-14T07:08:41;8.38;;;6.05;;
22144;SDS011;11238;48.730;11.566;2023-05-14T07:11:10;6.93;;;6.00;;
22144;SDS011;11238;48.730;11.566;2023-05-14T07:59:04;7.07;;;4.35;;
22144;SDS011;11238;48.730;11.566;2023-05-14T08:09:19;6.60;;;4.88;;
22144;SDS011;11238;48.730;11.566;2023-05-14T08:11:45;3.90;;;3.50;;
22144;SDS011;11238;48.730;11.566;2023-05-14T08:14:20;4.15;;;3.70;;
22144;SDS011;11238;48.730;11.566;2023-05-14T08:40:01;5.43;;;4.15;;
22144;SDS011;11238;48.730;11.566;2023-05-14T08:50:21;5.95;;;3.38;;
22144;SDS011;11238;48.730;11.566;2023-05-14T09:01:41;3.67;;;3.30;;
22144;SDS011;11238;48.730;11.566;2023-05-14T09:04:38;3.88;;;3.17;;
22144;SDS011;11238;48.730;11.566;2023-05-14T09:07:05;4.07;;;3.15;;
22144;SDS011;11238;48.730;11.566;2023-05-14T09:17:26;4.32;;;3.05;;
22144;SDS011;11238;48.730;11.566;2023-05-14T09:32:35;4.68;;;2.70;;
22144;SDS011;11238;48.730;11.566;2023-05-14T09:45:48;4.25;;;3.10;;
22144;SDS011;11238;48.730;11.566;2023-05-14T09:51:30;3.03;;;2.60;;
22144;SDS011;11238;48.730;11.566;2023-05-14T09:54:00;3.10;;;2.80;;
22144;SDS011;11238;48.730;11.566;2023-05-14T10:21:35;2.35;;;2.15;;
22144;SDS011;11238;48.730;11.566;2023-05-14T10:24:03;2.97;;;2.47;;
22144;SDS011;11238;48.730;11.566;2023-05-14T10:26:34;2.75;;;2.20;;
22144;SDS011;11238;48.730;11.566;2023-05-14T10:29:08;2.33;;;2.15;;
22144;SDS011;11238;48.730;11.566;2023-05-14T10:31:56;2.30;;;2.10;;
22144;SDS011;11238;48.730;11.566;2023-05-14T10:34:33;3.40;;;2.17;;
22144;SDS011;11238;48.730;11.566;2023-05-14T10:37:06;4.18;;;2.45;;
22144;SDS011;11238;48.730;11.566;2023-05-14T10:52:16;2.45;;;2.22;;
22144;SDS011;11238;48.730;11.566;2023-05-14T10:55:18;2.10;;;1.90;;
22144;SDS011;11238;48.730;11.566;2023-05-14T10:57:49;2.08;;;1.88;;
22144;SDS011;11238;48.730;11.566;2023-05-14T11:00:20;1.95;;;1.85;;
22144;SDS011;11238;48.730;11.566;2023-05-14T11:03:02;2.35;;;2.10;;
22144;SDS011;11238;48.730;11.566;2023-05-14T11:05:38;2.40;;;2.20;;
22144;SDS011;11238;48.730;11.566;2023-05-14T11:08:13;2.65;;;2.45;;
22144;SDS011;11238;48.730;11.566;2023-05-14T11:10:49;3.35;;;2.22;;
22144;SDS011;11238;48.730;11.566;2023-05-14T11:13:25;2.15;;;1.95;;
22144;SDS011;11238;48.730;11.566;2023-05-14T11:15:56;2.20;;;2.00;;
22144;SDS011;11238;48.730;11.566;2023-05-14T11:18:35;3.03;;;2.10;;
22144;SDS011;11238;48.730;11.566;2023-05-14T11:21:03;2.60;;;2.00;;
22144;SDS011;11238;48.730;11.566;2023-05-14T11:23:29;3.30;;;2.35;;
22144;SDS011;11238;48.730;11.566;2023-05-14T11:26:03;2.20;;;2.00;;
22144;SDS011;11238;48.730;11.566;2023-05-14T11:28:46;2.42;;;2.17;;
22144;SDS011;11238;48.730;11.566;2023-05-14T11:31:21;2.58;;;2.30;;
22144;SDS011;11238;48.730;11.566;2023-05-14T11:33:51;2.50;;;2.22;;
22144;SDS011;11238;48.730;11.566;2023-05-14T11:36:20;2.33;;;2.13;;
22144;SDS011;11238;48.730;11.566;2023-05-14T11:38:46;5.03;;;4.20;;
22144;SDS011;11238;48.730;11.566;2023-05-14T11:41:13;11.25;;;9.73;;
22144;SDS011;11238;48.730;11.566;2023-05-14T11:43:42;2.72;;;2.53;;
22144;SDS011;11238;48.730;11.566;2023-05-14T11:46:30;3.10;;;2.42;;
22144;SDS011;11238;48.730;11.566;2023-05-14T11:49:27;8.18;;;3.83;;
22144;SDS011;11238;48.730;11.566;2023-05-14T11:52:06;3.35;;;2.40;;
22144;SDS011;11238;48.730;11.566;2023-05-14T12:12:14;2.78;;;2.30;;
22144;SDS011;11238;48.730;11.566;2023-05-14T12:14:45;2.40;;;2.20;;
22144;SDS011;11238;48.730;11.566;2023-05-14T12:17:11;2.35;;;2.15;;
22144;SDS011;11238;48.730;11.566;2023-05-14T12:19:45;3.95;;;2.40;;
22144;SDS011;11238;48.730;11.566;2023-05-14T12:22:13;2.58;;;2.25;;
22144;SDS011;11238;48.730;11.566;2023-05-14T12:24:54;3.55;;;2.50;;
22144;SDS011;11238;48.730;11.566;2023-05-14T12:27:22;2.85;;;2.55;;
22144;SDS011;11238;48.730;11.566;2023-05-14T12:29:49;4.05;;;3.65;;
22144;SDS011;11238;48.730;11.566;2023-05-14T12:32:17;2.97;;;2.75;;
22144;SDS011;11238;48.730;11.566;2023-05-14T12:34:44;3.83;;;3.38;;
22144;SDS011;11238;48.730;11.566;2023-05-14T12:37:10;3.85;;;2.42;;
22144;SDS011;11238;48.730;11.566;2023-05-14T12:39:36;3.03;;;2.58;;
22144;SDS011;11238;48.730;11.566;2023-05-14T12:42:02;2.97;;;2.67;;
22144;SDS011;11238;48.730;11.566;2023-05-14T12:44:28;2.63;;;2.42;;
22144;SDS011;11238;48.730;11.566;2023-05-14T12:46:57;2.92;;;2.60;;
22144;SDS011;11238;48.730;11.566;2023-05-14T12:49:23;2.55;;;2.35;;
22144;SDS011;11238;48.730;11.566;2023-05-14T12:51:49;4.30;;;2.40;;
22144;SDS011;11238;48.730;11.566;2023-05-14T12:54:15;4.03;;;2.30;;
22144;SDS011;11238;48.730;11.566;2023-05-14T12:56:41;4.43;;;2.30;;
22144;SDS011;11238;48.730;11.566;2023-05-14T12:59:07;2.47;;;2.28;;
22144;SDS011;11238;48.730;11.566;2023-05-14T13:01:33;2.33;;;2.13;;
22144;SDS011;11238;48.730;11.566;2023-05-14T13:04:21;3.13;;;2.25;;
22144;SDS011;11238;48.730;11.566;2023-05-14T13:06:46;2.88;;;2.30;;
22144;SDS011;11238;48.730;11.566;2023-05-14T13:09:12;3.92;;;2.58;;
22144;SDS011;11238;48.730;11.566;2023-05-14T13:11:38;3.03;;;2.58;;
22144;SDS011;11238;48.730;11.566;2023-05-14T13:24:43;3.33;;;2.50;;
22144;SDS011;11238;48.730;11.566;2023-05-14T13:27:10;3.95;;;2.83;;
22144;SDS011;11238;48.730;11.566;2023-05-14T13:29:58;4.57;;;2.75;;
22144;SDS011;11238;48.730;11.566;2023-05-14T13:32:24;3.28;;;2.97;;
22144;SDS011;11238;48.730;11.566;2023-05-14T13:34:50;2.83;;;2.63;;
22144;SDS011;11238;48.730;11.566;2023-05-14T13:37:15;5.47;;;2.50;;
22144;SDS011;11238;48.730;11.566;2023-05-14T13:39:42;3.15;;;2.88;;
22144;SDS011;11238;48.730;11.566;2023-05-14T13:42:08;4.05;;;2.40;;
22144;SDS011;11238;48.730;11.566;2023-05-14T13:48:31;2.63;;;2.40;;
22144;SDS011;11238;48.730;11.566;2023-05-14T13:51:31;2.85;;;2.55;;
22144;SDS011;11238;48.730;11.566;2023-05-14T13:53:57;2.65;;;2.30;;
22144;SDS011;11238;48.730;11.566;2023-05-14T13:56:23;2.50;;;2.30;;
22144;SDS011;11238;48.730;11.566;2023-05-14T13:58:50;3.83;;;2.10;;
22144;SDS011;11238;48.730;11.566;2023-05-14T14:01:16;2.58;;;2.38;;
22144;SDS011;11238;48.730;11.566;2023-05-14T14:03:41;2.80;;;2.25;;
22144;SDS011;11238;48.730;11.566;2023-05-14T14:06:07;3.72;;;2.45;;
22144;SDS011;11238;48.730;11.566;2023-05-14T14:08:33;5.07;;;2.35;;
22144;SDS011;11238;48.730;11.566;2023-05-14T14:10:58;2.78;;;2.28;;
22144;SDS011;11238;48.730;11.566;2023-05-14T14:13:24;3.22;;;2.33;;
22144;SDS011;11238;48.730;11.566;2023-05-14T14:15:50;2.47;;;2.05;;
22144;SDS011;11238;48.730;11.566;2023-05-14T14:18:16;4.97;;;2.40;;
22144;SDS011;11238;48.730;11.566;2023-05-14T14:20:42;2.83;;;2.50;;
22144;SDS011;11238;48.730;11.566;2023-05-14T14:23:08;2.45;;;2.25;;
22144;SDS011;11238;48.730;11.566;2023-05-14T14:25:34;2.47;;;2.28;;
22144;SDS011;11238;48.730;11.566;2023-05-14T14:28:00;3.60;;;2.20;;
22144;SDS011;11238;48.730;11.566;2023-05-14T14:30:26;2.30;;;2.10;;
22144;SDS011;11238;48.730;11.566;2023-05-14T14:32:52;2.97;;;2.03;;
22144;SDS011;11238;48.730;11.566;2023-05-14T14:35:18;6.20;;;2.22;;
22144;SDS011;11238;48.730;11.566;2023-05-14T14:37:44;4.13;;;2.33;;
22144;SDS011;11238;48.730;11.566;2023-05-14T14:40:16;3.00;;;2.42;;
22144;SDS011;11238;48.730;11.566;2023-05-14T14:42:42;6.75;;;2.40;;
22144;SDS011;11238;48.730;11.566;2023-05-14T14:45:09;2.78;;;2.40;;
22144;SDS011;11238;48.730;11.566;2023-05-14T14:47:35;3.33;;;1.98;;
22144;SDS011;11238;48.730;11.566;2023-05-14T14:50:01;2.75;;;2.08;;
22144;SDS011;11238;48.730;11.566;2023-05-14T14:52:27;4.32;;;2.40;;
22144;SDS011;11238;48.730;11.566;2023-05-14T14:54:53;3.55;;;3.00;;
22144;SDS011;11238;48.730;11.566;2023-05-14T14:57:20;6.00;;;4.70;;
22144;SDS011;11238;48.730;11.566;2023-05-14T14:59:46;3.78;;;2.70;;
22144;SDS011;11238;48.730;11.566;2023-05-14T15:02:12;2.67;;;2.47;;
22144;SDS011;11238;48.730;11.566;2023-05-14T15:04:38;15.98;;;5.53;;
22144;SDS011;11238;48.730;11.566;2023-05-14T15:07:04;21.80;;;12.50;;
22144;SDS011;11238;48.730;11.566;2023-05-14T15:09:30;36.25;;;17.77;;
22144;SDS011;11238;48.730;11.566;2023-05-14T15:11:56;35.10;;;18.90;;
22144;SDS011;11238;48.730;11.566;2023-05-14T15:14:22;10.35;;;9.25;;
22144;SDS011;11238;48.730;11.566;2023-05-14T15:16:48;6.32;;;4.35;;
22144;SDS011;11238;48.730;11.566;2023-05-14T15:19:13;4.80;;;3.05;;
22144;SDS011;11238;48.730;11.566;2023-05-14T15:21:39;4.03;;;3.00;;
22144;SDS011;11238;48.730;11.566;2023-05-14T15:24:06;3.42;;;2.63;;
22144;SDS011;11238;48.730;11.566;2023-05-14T15:26:35;6.47;;;4.00;;
22144;SDS011;11238;48.730;11.566;2023-05-14T15:29:00;4.93;;;3.15;;
22144;SDS011;11238;48.730;11.566;2023-05-14T15:31:26;3.97;;;2.72;;
22144;SDS011;11238;48.730;11.566;2023-05-14T15:33:53;4.18;;;2.97;;
22144;SDS011;11238;48.730;11.566;2023-05-14T15:36:20;4.38;;;2.80;;
22144;SDS011;11238;48.730;11.566;2023-05-14T15:38:45;3.92;;;3.17;;
22144;SDS011;11238;48.730;11.566;2023-05-14T15:41:11;6.85;;;3.08;;
22144;SDS011;11238;48.730;11.566;2023-05-14T15:43:37;7.32;;;3.30;;
22144;SDS011;11238;48.730;11.566;2023-05-14T15:49:10;3.67;;;3.03;;
22144;SDS011;11238;48.730;11.566;2023-05-14T15:51:36;3.10;;;2.75;;
22144;SDS011;11238;48.730;11.566;2023-05-14T15:54:02;3.88;;;2.95;;
22144;SDS011;11238;48.730;11.566;2023-05-14T16:15:15;3.95;;;1.95;;
22144;SDS011;11238;48.730;11.566;2023-05-14T16:17:53;4.15;;;2.08;;
22144;SDS011;11238;48.730;11.566;2023-05-14T16:23:37;1.77;;;1.60;;
22144;SDS011;11238;48.730;11.566;2023-05-14T16:26:12;1.92;;;1.80;;
22144;SDS011;11238;48.730;11.566;2023-05-14T16:32:05;1.80;;;1.67;;
22144;SDS011;11238;48.730;11.566;2023-05-14T16:34:45;2.30;;;1.85;;
22144;SDS011;11238;48.730;11.566;2023-05-14T16:37:17;3.95;;;2.30;;
22144;SDS011;11238;48.730;11.566;2023-05-14T16:39:54;4.57;;;3.17;;
22144;SDS011;11238;48.730;11.566;2023-05-14T16:42:23;4.32;;;3.17;;
22144;SDS011;11238;48.730;11.566;2023-05-14T16:45:01;4.95;;;4.55;;
22144;SDS011;11238;48.730;11.566;2023-05-14T16:47:29;4.32;;;3.92;;
22144;SDS011;11238;48.730;11.566;2023-05-14T16:50:16;3.58;;;3.17;;
22144;SDS011;11238;48.730;11.566;2023-05-14T16:52:45;6.43;;;3.90;;
22144;SDS011;11238;48.730;11.566;2023-05-14T16:59:17;4.88;;;4.10;;
22144;SDS011;11238;48.730;11.566;2023-05-14T17:01:59;6.68;;;4.85;;
22144;SDS011;11238;48.730;11.566;2023-05-14T17:04:45;4.63;;;4.20;;
22144;SDS011;11238;48.730;11.566;2023-05-14T17:07:31;3.75;;;3.03;;
22144;SDS011;11238;48.730;11.566;2023-05-14T17:10:27;4.38;;;3.22;;
22144;SDS011;11238;48.730;11.566;2023-05-14T17:13:12;5.22;;;3.80;;
22144;SDS011;11238;48.730;11.566;2023-05-14T17:15:46;4.50;;;4.10;;
22144;SDS011;11238;48.730;11.566;2023-05-14T17:18:20;4.00;;;3.20;;
22144;SDS011;11238;48.730;11.566;2023-05-14T17:20:55;5.18;;;3.22;;
22144;SDS011;11238;48.730;11.566;2023-05-14T17:23:44;5.00;;;3.47;;
22144;SDS011;11238;48.730;11.566;2023-05-14T17:26:13;3.17;;;2.88;;
22144;SDS011;11238;48.730;11.566;2023-05-14T17:28:39;4.60;;;2.92;;
22144;SDS011;11238;48.730;11.566;2023-05-14T17:31:08;3.85;;;2.85;;
22144;SDS011;11238;48.730;11.566;2023-05-14T17:33:40;3.05;;;2.75;;
22144;SDS011;11238;48.730;11.566;2023-05-14T17:36:15;3.28;;;2.72;;
22144;SDS011;11238;48.730;11.566;2023-05-14T17:38:48;3.38;;;3.08;;
22144;SDS011;11238;48.730;11.566;2023-05-14T17:41:47;3.63;;;2.97;;
22144;SDS011;11238;48.730;11.566;2023-05-14T17:45:29;2.83;;;2.60;;
22144;SDS011;11238;48.730;11.566;2023-05-14T17:47:56;3.47;;;3.17;;
22144;SDS011;11238;48.730;11.566;2023-05-14T17:53:11;3.13;;;2.90;;
22144;SDS011;11238;48.730;11.566;2023-05-14T17:55:45;5.97;;;3.55;;
22144;SDS011;11238;48.730;11.566;2023-05-14T17:58:34;3.97;;;3.65;;
22144;SDS011;11238;48.730;11.566;2023-05-14T18:01:35;4.85;;;3.83;;
22144;SDS011;11238;48.730;11.566;2023-05-14T18:04:18;5.03;;;4.22;;
22144;SDS011;11238;48.730;11.566;2023-05-14T18:06:54;6.55;;;4.40;;
22144;SDS011;11238;48.730;11.566;2023-05-14T18:09:51;4.40;;;4.00;;
22144;SDS011;11238;48.730;11.566;2023-05-14T18:12:39;6.82;;;3.92;;
22144;SDS011;11238;48.730;11.566;2023-05-14T18:15:44;6.68;;;3.83;;
22144;SDS011;11238;48.730;11.566;2023-05-14T18:18:19;3.75;;;3.45;;
22144;SDS011;11238;48.730;11.566;2023-05-14T18:21:04;13.65;;;10.38;;
22144;SDS011;11238;48.730;11.566;2023-05-14T18:23:32;33.97;;;24.02;;
22144;SDS011;11238;48.730;11.566;2023-05-14T18:26:01;66.38;;;51.25;;
22144;SDS011;11238;48.730;11.566;2023-05-14T18:28:40;20.48;;;18.27;;
22144;SDS011;11238;48.730;11.566;2023-05-14T18:31:06;13.25;;;10.57;;
22144;SDS011;11238;48.730;11.566;2023-05-14T18:33:32;9.32;;;6.80;;
22144;SDS011;11238;48.730;11.566;2023-05-14T18:35:58;6.53;;;4.82;;
22144;SDS011;11238;48.730;11.566;2023-05-14T18:38:25;4.38;;;3.97;;
22144;SDS011;11238;48.730;11.566;2023-05-14T18:41:03;4.00;;;3.60;;